Back to top

Lander, WY weather

Hunt Field Airport, Lander, WY: 5/26/2019 14:53
Visibility10 statute milessun with scattered clouds
View 7-Day Forecast
Area Summary
Sky/CloudsScattered at 12000ft
Weather [last 24 hours]None
Pressure29.86 in.Hg (1011 hPa)
3-hour Pressure Tendency0.05019 in.Hg (1.7 hPa) Decreasing, then steady, or decreasing then decreasing more slowly
Dew Point43 °F (6.1 °C)
Relative Humidity44.8 %
Temperature64.9 °F (18.3 °C)red thermometer
Reading TimeMinimum to Maximum Temperature
6-hr ending 5/26@11:5339 °F to 61 °F (3.9 °C to 16.1 °C)
6-hr ending 5/26@05:5341 °F to 51.1 °F (5 °C to 10.6 °C)
6-hr ending 5/25@23:5346.9 °F to 63 °F (8.3 °C to 17.2 °C)
6-hr ending 5/25@17:5357.9 °F to 64 °F (14.4 °C to 17.8 °C)
24-hr ending 5/26@00:5337.9 °F to 64 °F (3.3 °C to 17.8 °C)
Wind4.6 MPH (4 KT) green arrow pointing 157.5 degrees
Wind FromSouth/Southeast (160 Degrees)
Rolling 24-hr Peak Wind35.7 MPH (31 KT) on 5/25@19:53
Rolling 24-hr Peak Wind FromSouth (190 Degrees)
Twilight Begins05:07Sunshine Yesterday
Sunrise05:41N/A
Sunset20:44
Twilight Ends21:18
METARKLND 262053Z AUTO 16004KT 10SM SCT120 18/06 A2986 RMK AO2 SLP071 T01830061 56017
Tags: